createdAt,value
2023-01-28T00:00:50.055Z,6.00
2023-01-28T00:01:50.000Z,6.10
2023-01-28T00:02:49.990Z,6.70
2023-01-28T00:03:49.954Z,6.80
2023-01-28T00:04:49.881Z,6.70
2023-01-28T00:05:49.819Z,7.10
2023-01-28T00:06:49.775Z,7.30
2023-01-28T00:07:49.731Z,7.20
2023-01-28T00:08:49.682Z,7.80
2023-01-28T00:09:49.649Z,7.80
2023-01-28T00:10:49.593Z,7.20
2023-01-28T00:11:49.546Z,8.20
2023-01-28T00:12:49.506Z,8.30
2023-01-28T00:13:49.455Z,9.00
2023-01-28T00:14:49.413Z,8.40
2023-01-28T00:15:49.382Z,8.80
2023-01-28T00:16:49.324Z,8.90
2023-01-28T00:17:49.276Z,8.80
2023-01-28T00:18:49.237Z,9.20
2023-01-28T00:19:49.186Z,9.30
2023-01-28T00:20:49.142Z,8.80
2023-01-28T00:21:49.123Z,8.70
2023-01-28T00:22:51.717Z,10.20
2023-01-28T00:23:49.025Z,8.90
2023-01-28T00:24:48.962Z,9.00
2023-01-28T00:25:48.923Z,8.70
2023-01-28T00:26:48.874Z,9.00
2023-01-28T00:27:48.836Z,8.60
2023-01-28T00:28:48.784Z,8.30
2023-01-28T00:29:48.732Z,8.90
2023-01-28T00:30:48.740Z,9.00
2023-01-28T00:31:48.701Z,8.50
2023-01-28T00:32:48.624Z,8.70
2023-01-28T00:33:48.566Z,9.00
2023-01-28T00:34:48.517Z,8.60
2023-01-28T00:35:48.462Z,9.00
2023-01-28T00:36:48.418Z,8.30
2023-01-28T00:37:48.372Z,8.80
2023-01-28T00:38:48.323Z,9.10
2023-01-28T00:39:48.305Z,8.70
2023-01-28T00:40:48.234Z,8.80
2023-01-28T00:41:48.189Z,9.10
2023-01-28T00:42:48.142Z,9.80
2023-01-28T00:43:48.099Z,9.60
2023-01-28T00:44:48.056Z,9.20
2023-01-28T00:45:50.134Z,9.50
2023-01-28T00:46:47.970Z,9.50
2023-01-28T00:47:47.918Z,9.10
2023-01-28T00:48:47.868Z,9.10
2023-01-28T00:49:47.832Z,9.70
2023-01-28T00:50:47.779Z,10.10
2023-01-28T00:51:47.749Z,9.60
2023-01-28T00:52:47.686Z,9.60
2023-01-28T00:53:47.646Z,10.10
2023-01-28T00:54:47.601Z,9.50
2023-01-28T00:55:47.562Z,8.80
2023-01-28T00:56:47.525Z,9.30
2023-01-28T00:57:47.477Z,9.20
2023-01-28T00:58:47.439Z,9.60
2023-01-28T00:59:47.373Z,10.20
2023-01-28T01:00:47.325Z,8.50
2023-01-28T01:01:47.312Z,8.50
2023-01-28T01:02:47.319Z,9.10
2023-01-28T01:03:47.202Z,8.60
2023-01-28T01:04:47.147Z,8.90
2023-01-28T01:05:47.101Z,8.80
2023-01-28T01:06:47.051Z,8.50
2023-01-28T01:07:47.014Z,8.50
2023-01-28T01:08:46.962Z,8.90
2023-01-28T01:09:46.930Z,8.30
2023-01-28T01:10:46.874Z,9.10
2023-01-28T01:11:46.833Z,8.70
2023-01-28T01:12:46.778Z,8.70
2023-01-28T01:13:46.740Z,8.00
2023-01-28T01:14:46.691Z,8.70
2023-01-28T01:15:46.701Z,8.20
2023-01-28T01:16:46.608Z,8.20
2023-01-28T01:17:46.556Z,8.10
2023-01-28T01:18:46.510Z,7.80
2023-01-28T01:19:46.468Z,7.90
2023-01-28T01:20:46.421Z,7.10
2023-01-28T01:21:46.383Z,7.10
2023-01-28T01:22:46.327Z,7.10
2023-01-28T01:23:46.282Z,7.00
2023-01-28T01:24:46.232Z,7.30
2023-01-28T01:25:46.192Z,7.10
2023-01-28T01:26:46.176Z,7.20
2023-01-28T01:27:46.126Z,7.40
2023-01-28T01:28:46.050Z,6.90
2023-01-28T01:29:46.011Z,7.20
2023-01-28T01:30:45.986Z,7.00
2023-01-28T01:31:45.993Z,7.00
2023-01-28T01:32:45.869Z,6.30
2023-01-28T01:33:45.844Z,6.60
2023-01-28T01:34:45.781Z,6.20
2023-01-28T01:35:45.737Z,6.10
2023-01-28T01:36:45.694Z,6.30
2023-01-28T01:37:45.642Z,6.70
2023-01-28T01:38:45.595Z,6.40
2023-01-28T01:39:45.560Z,6.40
2023-01-28T01:40:45.503Z,6.20
2023-01-28T01:41:45.473Z,6.70
2023-01-28T01:42:45.413Z,6.60
2023-01-28T01:43:45.369Z,6.00
2023-01-28T01:44:45.319Z,6.70
2023-01-28T01:45:45.353Z,6.40
2023-01-28T01:46:45.233Z,6.10
2023-01-28T01:47:45.191Z,6.40
2023-01-28T01:48:45.140Z,6.20
2023-01-28T01:49:45.115Z,6.40
2023-01-28T01:50:45.046Z,6.30
2023-01-28T01:51:45.012Z,6.30
2023-01-28T01:52:44.953Z,6.60
2023-01-28T01:53:44.911Z,6.40
2023-01-28T01:54:44.863Z,6.50
2023-01-28T01:55:44.824Z,7.00
2023-01-28T01:56:44.788Z,6.60
2023-01-28T01:57:44.734Z,6.60
2023-01-28T01:58:44.685Z,6.10
2023-01-28T01:59:44.688Z,6.30
2023-01-28T02:00:44.616Z,6.50
2023-01-28T02:01:44.557Z,6.40
2023-01-28T02:02:44.498Z,6.30
2023-01-28T02:03:44.507Z,6.40
2023-01-28T02:04:44.407Z,6.10
2023-01-28T02:05:44.361Z,7.00
2023-01-28T02:06:44.317Z,6.80
2023-01-28T02:07:44.294Z,6.40
2023-01-28T02:08:44.224Z,6.90
2023-01-28T02:09:44.200Z,6.70
2023-01-28T02:10:44.133Z,6.80
2023-01-28T02:11:44.091Z,7.10
2023-01-28T02:12:44.040Z,7.00
2023-01-28T02:13:43.996Z,7.20
2023-01-28T02:14:43.950Z,7.20
2023-01-28T02:15:43.915Z,7.20
2023-01-28T02:16:43.879Z,6.60
2023-01-28T02:17:43.813Z,6.90
2023-01-28T02:18:43.764Z,7.10
2023-01-28T02:19:43.722Z,7.00
2023-01-28T02:20:43.708Z,7.00
2023-01-28T02:21:43.632Z,6.90
2023-01-28T02:22:43.589Z,6.80
2023-01-28T02:23:43.539Z,6.70
2023-01-28T02:24:43.520Z,7.30
2023-01-28T02:25:43.454Z,7.80
2023-01-28T02:26:43.415Z,6.70
2023-01-28T02:27:43.361Z,6.70
2023-01-28T02:28:43.307Z,7.00
2023-01-28T02:29:43.268Z,6.90
2023-01-28T02:30:43.328Z,7.00
2023-01-28T02:31:43.290Z,6.50
2023-01-28T02:32:43.140Z,7.00
2023-01-28T02:33:43.087Z,6.70
2023-01-28T02:34:43.043Z,6.60
2023-01-28T02:35:42.993Z,6.90
2023-01-28T02:36:42.944Z,6.30
2023-01-28T02:37:42.900Z,6.70
2023-01-28T02:38:42.872Z,6.70
2023-01-28T02:39:42.811Z,7.10
2023-01-28T02:40:42.760Z,7.00
2023-01-28T02:41:42.719Z,7.10
2023-01-28T02:42:42.673Z,7.50
2023-01-28T02:43:42.636Z,7.30
2023-01-28T02:44:42.578Z,7.10
2023-01-28T02:45:42.569Z,7.60
2023-01-28T02:46:42.486Z,8.00
2023-01-28T02:47:42.445Z,7.90
2023-01-28T02:48:42.404Z,8.10
2023-01-28T02:49:42.350Z,8.00
2023-01-28T02:50:42.312Z,8.70
2023-01-28T02:51:42.272Z,8.90
2023-01-28T02:52:42.216Z,9.40
2023-01-28T02:53:42.168Z,9.00
2023-01-28T02:54:42.130Z,9.40
2023-01-28T02:55:42.084Z,10.00
2023-01-28T02:56:42.045Z,10.30
2023-01-28T02:57:42.010Z,10.90
2023-01-28T02:58:41.967Z,10.60
2023-01-28T02:59:41.894Z,10.70
2023-01-28T03:00:41.856Z,10.90
2023-01-28T03:01:41.822Z,11.90
2023-01-28T03:02:41.794Z,12.30
2023-01-28T03:03:41.729Z,12.10
2023-01-28T03:04:41.681Z,12.40
2023-01-28T03:05:41.623Z,12.90
2023-01-28T03:06:41.576Z,13.30
2023-01-28T03:07:41.535Z,14.20
2023-01-28T03:08:41.493Z,14.10
2023-01-28T03:09:41.447Z,15.10
2023-01-28T03:10:41.408Z,15.50
2023-01-28T03:11:41.359Z,15.50
2023-01-28T03:12:41.323Z,16.90
2023-01-28T03:13:41.262Z,17.60
2023-01-28T03:14:41.224Z,16.70
2023-01-28T03:15:41.224Z,17.40
2023-01-28T03:16:41.119Z,17.00
2023-01-28T03:17:41.078Z,17.70
2023-01-28T03:18:41.028Z,18.00
2023-01-28T03:19:40.988Z,17.80
2023-01-28T03:20:40.948Z,18.60
2023-01-28T03:21:40.897Z,18.90
2023-01-28T03:22:40.847Z,18.40
2023-01-28T03:23:40.804Z,19.50
2023-01-28T03:24:40.761Z,19.60
2023-01-28T03:25:40.711Z,19.90
2023-01-28T03:26:40.676Z,20.00
2023-01-28T03:27:40.632Z,20.50
2023-01-28T03:28:40.580Z,21.00
2023-01-28T03:29:41.968Z,19.70
2023-01-28T03:30:40.495Z,20.20
2023-01-28T03:31:40.466Z,21.20
2023-01-28T03:32:40.403Z,20.90
2023-01-28T03:33:40.344Z,21.10
2023-01-28T03:34:40.298Z,20.50
2023-01-28T03:35:40.259Z,20.50
2023-01-28T03:36:40.216Z,20.40
2023-01-28T03:37:40.164Z,20.70
2023-01-28T03:38:40.139Z,20.00
2023-01-28T03:39:40.078Z,20.40
2023-01-28T03:40:40.026Z,20.50
2023-01-28T03:41:39.983Z,20.70
2023-01-28T03:42:39.935Z,20.10
2023-01-28T03:43:39.903Z,20.70
2023-01-28T03:44:39.860Z,20.60
2023-01-28T03:45:39.804Z,19.50
2023-01-28T03:46:39.784Z,19.20
2023-01-28T03:47:39.708Z,19.40
2023-01-28T03:48:39.670Z,19.40
2023-01-28T03:49:39.621Z,18.70
2023-01-28T03:50:39.568Z,18.80
2023-01-28T03:51:39.547Z,18.90
2023-01-28T03:52:39.478Z,18.90
2023-01-28T03:53:39.449Z,18.10
2023-01-28T03:54:39.414Z,18.00
2023-01-28T03:55:39.353Z,17.70
2023-01-28T03:56:39.315Z,17.60
2023-01-28T03:57:39.248Z,17.80
2023-01-28T03:58:39.203Z,16.80
2023-01-28T03:59:39.158Z,17.00
2023-01-28T04:00:39.111Z,16.60
2023-01-28T04:01:39.088Z,17.30
2023-01-28T04:02:39.096Z,16.70
2023-01-28T04:03:38.987Z,16.80
2023-01-28T04:04:38.940Z,17.30
2023-01-28T04:05:38.887Z,17.00
2023-01-28T04:06:38.853Z,17.10
2023-01-28T04:07:38.792Z,16.70
2023-01-28T04:08:38.747Z,16.70
2023-01-28T04:09:38.710Z,16.90
2023-01-28T04:10:38.657Z,16.40
2023-01-28T04:11:38.631Z,16.50
2023-01-28T04:12:38.567Z,16.20
2023-01-28T04:13:38.545Z,16.20
2023-01-28T04:14:38.468Z,16.20
2023-01-28T04:15:38.426Z,15.90
2023-01-28T04:16:38.389Z,15.60
2023-01-28T04:17:38.340Z,16.70
2023-01-28T04:18:38.303Z,15.80
2023-01-28T04:19:38.262Z,15.30
2023-01-28T04:20:38.204Z,15.80
2023-01-28T04:21:38.158Z,15.70
2023-01-28T04:22:38.116Z,15.70
2023-01-28T04:23:38.060Z,16.40
2023-01-28T04:24:38.021Z,14.90
2023-01-28T04:25:37.987Z,14.30
2023-01-28T04:26:37.940Z,15.10
2023-01-28T04:27:37.881Z,15.70
2023-01-28T04:28:37.833Z,15.20
2023-01-28T04:29:37.795Z,14.80
2023-01-28T04:30:37.791Z,15.20
2023-01-28T04:31:37.762Z,14.70
2023-01-28T04:32:37.663Z,15.00
2023-01-28T04:33:37.604Z,14.80
2023-01-28T04:34:37.568Z,14.70
2023-01-28T04:35:37.511Z,15.20
2023-01-28T04:36:37.481Z,14.60
2023-01-28T04:37:37.424Z,15.10
2023-01-28T04:38:37.401Z,15.40
2023-01-28T04:39:37.327Z,15.60
2023-01-28T04:40:37.291Z,15.10
2023-01-28T04:41:37.244Z,14.90
2023-01-28T04:42:37.206Z,15.20
2023-01-28T04:43:37.147Z,14.70
2023-01-28T04:44:37.113Z,14.80
2023-01-28T04:45:37.059Z,14.80
2023-01-28T04:46:37.087Z,14.50
2023-01-28T04:47:36.962Z,14.20
2023-01-28T04:48:36.917Z,15.30
2023-01-28T04:49:36.870Z,14.80
2023-01-28T04:50:36.839Z,14.40
2023-01-28T04:51:36.783Z,15.00
2023-01-28T04:52:45.910Z,15.20
2023-01-28T04:53:36.705Z,14.70
2023-01-28T04:54:36.645Z,14.80
2023-01-28T04:55:36.596Z,14.80
2023-01-28T04:56:36.558Z,15.00
2023-01-28T04:57:36.505Z,14.80
2023-01-28T04:58:36.472Z,14.60
2023-01-28T04:59:36.421Z,14.00
2023-01-28T05:00:36.418Z,14.70
2023-01-28T05:01:36.332Z,14.50
2023-01-28T05:02:36.282Z,14.50
2023-01-28T05:03:36.532Z,14.20
2023-01-28T05:04:36.182Z,13.80
2023-01-28T05:05:36.151Z,14.70
2023-01-28T05:06:36.120Z,14.20
2023-01-28T05:07:36.050Z,14.30
2023-01-28T05:08:36.014Z,14.60
2023-01-28T05:09:35.954Z,13.60
2023-01-28T05:10:35.912Z,13.80
2023-01-28T05:11:38.708Z,13.70
2023-01-28T05:12:35.840Z,14.00
2023-01-28T05:13:35.774Z,14.00
2023-01-28T05:14:35.739Z,14.00
2023-01-28T05:15:35.681Z,13.70
2023-01-28T05:16:35.633Z,13.40
2023-01-28T05:17:35.723Z,14.20
2023-01-28T05:18:35.546Z,14.10
2023-01-28T05:19:35.497Z,14.40
2023-01-28T05:20:35.462Z,14.00
2023-01-28T05:21:35.403Z,13.80
2023-01-28T05:22:35.359Z,13.20
2023-01-28T05:23:35.313Z,14.40
2023-01-28T05:24:35.269Z,14.10
2023-01-28T05:25:35.229Z,13.80
2023-01-28T05:26:35.179Z,13.20
2023-01-28T05:27:35.133Z,14.30
2023-01-28T05:28:35.141Z,14.20
2023-01-28T05:29:35.039Z,13.80
2023-01-28T05:30:35.029Z,14.60
2023-01-28T05:31:34.958Z,14.50
2023-01-28T05:32:34.939Z,14.30
2023-01-28T05:33:34.857Z,14.30
2023-01-28T05:34:34.817Z,14.60
2023-01-28T05:35:34.764Z,14.40
2023-01-28T05:36:34.722Z,14.20
2023-01-28T05:37:34.685Z,14.80
2023-01-28T05:38:34.635Z,14.30
2023-01-28T05:39:34.587Z,14.70
2023-01-28T05:40:34.549Z,14.30
2023-01-28T05:41:34.487Z,14.30
2023-01-28T05:42:34.447Z,14.90
2023-01-28T05:43:34.411Z,13.90
2023-01-28T05:44:34.362Z,14.20
2023-01-28T05:45:34.316Z,14.30
2023-01-28T05:46:34.267Z,14.40
2023-01-28T05:47:34.213Z,14.40
2023-01-28T05:48:34.187Z,14.10
2023-01-28T05:49:34.138Z,14.00
2023-01-28T05:50:34.083Z,14.60
2023-01-28T05:51:34.036Z,14.70
2023-01-28T05:52:33.993Z,14.40
2023-01-28T05:53:33.939Z,14.10
2023-01-28T05:54:33.899Z,13.60
2023-01-28T05:55:33.861Z,14.60
2023-01-28T05:56:33.806Z,14.40
2023-01-28T05:57:33.758Z,14.60
2023-01-28T05:58:33.716Z,14.60
2023-01-28T05:59:33.682Z,14.30
2023-01-28T06:00:33.638Z,14.60
2023-01-28T06:01:33.574Z,14.50
2023-01-28T06:02:33.538Z,14.90
2023-01-28T06:03:33.482Z,14.90
2023-01-28T06:04:33.449Z,14.40
2023-01-28T06:05:33.487Z,14.30
2023-01-28T06:06:33.353Z,14.20
2023-01-28T06:07:33.306Z,14.60
2023-01-28T06:08:33.264Z,14.90
2023-01-28T06:09:33.214Z,14.30
2023-01-28T06:10:33.168Z,14.20
2023-01-28T06:11:33.138Z,14.40
2023-01-28T06:12:33.082Z,14.00
2023-01-28T06:13:33.028Z,14.70
2023-01-28T06:14:32.981Z,14.00
2023-01-28T06:15:33.019Z,13.40
2023-01-28T06:16:32.890Z,13.30
2023-01-28T06:17:32.866Z,12.40
2023-01-28T06:18:32.799Z,13.10
2023-01-28T06:19:32.750Z,12.60
2023-01-28T06:20:32.707Z,12.80
2023-01-28T06:21:32.660Z,13.00
2023-01-28T06:22:32.619Z,12.70
2023-01-28T06:23:32.589Z,12.80
2023-01-28T06:24:32.535Z,12.80
2023-01-28T06:25:32.484Z,12.40
2023-01-28T06:26:32.437Z,13.80
2023-01-28T06:27:32.384Z,13.20
2023-01-28T06:28:32.340Z,12.60
2023-01-28T06:29:32.301Z,12.30
2023-01-28T06:30:32.266Z,12.60
2023-01-28T06:31:32.201Z,12.20
2023-01-28T06:32:32.159Z,12.40
2023-01-28T06:33:32.112Z,12.70
2023-01-28T06:34:32.071Z,12.30
2023-01-28T06:35:32.023Z,12.80
2023-01-28T06:36:31.982Z,13.20
2023-01-28T06:37:31.924Z,13.70
2023-01-28T06:38:31.882Z,13.80
2023-01-28T06:39:31.834Z,13.30
2023-01-28T06:40:31.788Z,13.70
2023-01-28T06:41:31.761Z,13.50
2023-01-28T06:42:31.698Z,13.30
2023-01-28T06:43:31.648Z,13.20
2023-01-28T06:44:31.609Z,12.20
2023-01-28T06:45:31.553Z,12.20
2023-01-28T06:46:31.567Z,12.30
2023-01-28T06:47:31.473Z,11.50
2023-01-28T06:48:31.433Z,12.40
2023-01-28T06:49:31.370Z,12.00
2023-01-28T06:50:31.333Z,11.70
2023-01-28T06:51:31.278Z,11.30
2023-01-28T06:52:31.233Z,11.90
2023-01-28T06:53:31.188Z,12.40
2023-01-28T06:54:31.157Z,12.00
2023-01-28T06:55:31.102Z,12.50
2023-01-28T06:56:31.053Z,13.00
2023-01-28T06:57:31.003Z,13.00
2023-01-28T06:58:30.960Z,13.20
2023-01-28T06:59:30.913Z,12.60
2023-01-28T07:00:30.952Z,13.00
2023-01-28T07:01:30.865Z,12.50
2023-01-28T07:02:30.778Z,13.00
2023-01-28T07:03:30.738Z,13.30
2023-01-28T07:04:30.684Z,12.70
2023-01-28T07:05:30.635Z,12.40
2023-01-28T07:06:30.589Z,12.80
2023-01-28T07:07:30.541Z,12.40
2023-01-28T07:08:30.512Z,13.20
2023-01-28T07:09:30.449Z,13.00
2023-01-28T07:10:30.460Z,13.60
2023-01-28T07:11:30.359Z,12.50
2023-01-28T07:12:30.311Z,12.60
2023-01-28T07:13:30.269Z,12.10
2023-01-28T07:14:30.236Z,12.60
2023-01-28T07:15:30.174Z,12.90
2023-01-28T07:16:30.124Z,11.60
2023-01-28T07:17:30.115Z,12.20
2023-01-28T07:18:30.034Z,12.40
2023-01-28T07:19:29.988Z,12.70
2023-01-28T07:20:30.058Z,12.40
2023-01-28T07:21:29.897Z,13.30
2023-01-28T07:22:29.852Z,13.20
2023-01-28T07:23:29.809Z,13.70
2023-01-28T07:24:29.810Z,13.60
2023-01-28T07:25:29.719Z,14.10
2023-01-28T07:26:29.678Z,13.70
2023-01-28T07:27:29.620Z,14.30
2023-01-28T07:28:29.586Z,17.10
2023-01-28T07:29:29.526Z,18.20
2023-01-28T07:30:29.528Z,17.40
2023-01-28T07:31:29.541Z,19.40
2023-01-28T07:32:29.386Z,20.20
2023-01-28T07:33:29.352Z,18.50
2023-01-28T07:34:29.305Z,16.00
2023-01-28T07:35:29.260Z,14.70
2023-01-28T07:36:29.201Z,13.80
2023-01-28T07:37:29.156Z,13.40
2023-01-28T07:38:29.111Z,14.40
2023-01-28T07:39:29.065Z,13.60
2023-01-28T07:40:29.108Z,12.80
2023-01-28T07:41:28.975Z,13.50
2023-01-28T07:42:28.924Z,13.30
2023-01-28T07:43:28.880Z,13.00
2023-01-28T07:44:28.827Z,12.80
2023-01-28T07:45:28.815Z,13.40
2023-01-28T07:46:28.754Z,12.30
2023-01-28T07:47:28.750Z,11.90
2023-01-28T07:48:28.653Z,12.20
2023-01-28T07:49:28.621Z,11.80
2023-01-28T07:50:28.589Z,11.50
2023-01-28T07:51:28.517Z,11.50
2023-01-28T07:52:28.474Z,11.60
2023-01-28T07:53:28.425Z,13.10
2023-01-28T07:54:28.372Z,13.00
2023-01-28T07:55:30.293Z,12.80
2023-01-28T07:56:28.279Z,12.50
2023-01-28T07:57:28.252Z,13.00
2023-01-28T07:58:28.190Z,12.90
2023-01-28T07:59:28.143Z,13.10
2023-01-28T08:00:28.219Z,12.60
2023-01-28T08:01:28.086Z,12.80
2023-01-28T08:02:28.003Z,13.20
2023-01-28T08:03:27.970Z,12.80
2023-01-28T08:04:28.010Z,12.30
2023-01-28T08:05:28.008Z,12.30
2023-01-28T08:06:27.818Z,13.00
2023-01-28T08:07:27.776Z,13.40
2023-01-28T08:08:27.726Z,13.50
2023-01-28T08:09:27.696Z,13.50
2023-01-28T08:10:27.651Z,12.80
2023-01-28T08:11:27.596Z,13.30
2023-01-28T08:12:27.544Z,12.80
2023-01-28T08:13:27.500Z,12.80
2023-01-28T08:14:27.464Z,13.20
2023-01-28T08:15:27.470Z,12.50
2023-01-28T08:16:27.358Z,12.10
2023-01-28T08:17:27.315Z,12.60
2023-01-28T08:18:27.266Z,12.90
2023-01-28T08:19:27.229Z,13.20
2023-01-28T08:20:27.185Z,13.40
2023-01-28T08:21:27.146Z,13.20
2023-01-28T08:22:27.081Z,12.80
2023-01-28T08:23:27.094Z,13.20
2023-01-28T08:24:27.020Z,12.70
2023-01-28T08:25:26.964Z,12.70
2023-01-28T08:26:26.911Z,13.40
2023-01-28T08:27:26.862Z,13.70
2023-01-28T08:28:26.807Z,13.50
2023-01-28T08:29:26.765Z,13.90
2023-01-28T08:30:26.808Z,12.90
2023-01-28T08:31:26.702Z,13.10
2023-01-28T08:32:26.649Z,14.50
2023-01-28T08:33:26.581Z,14.10
2023-01-28T08:34:26.531Z,13.50
2023-01-28T08:35:26.494Z,13.40
2023-01-28T08:36:26.440Z,13.30
2023-01-28T08:37:26.397Z,13.40
2023-01-28T08:38:26.379Z,14.40
2023-01-28T08:39:26.306Z,13.50
2023-01-28T08:40:26.265Z,14.40
2023-01-28T08:41:26.235Z,13.50
2023-01-28T08:42:26.170Z,12.40
2023-01-28T08:43:26.123Z,12.80
2023-01-28T08:44:26.085Z,13.40
2023-01-28T08:45:27.805Z,13.20
2023-01-28T08:46:25.998Z,13.80
2023-01-28T08:47:25.946Z,13.50
2023-01-28T08:48:25.891Z,13.30
2023-01-28T08:49:25.853Z,13.40
2023-01-28T08:50:25.805Z,13.90
2023-01-28T08:51:25.779Z,13.00
2023-01-28T08:52:25.713Z,13.50
2023-01-28T08:53:25.683Z,13.10
2023-01-28T08:54:25.620Z,13.30
2023-01-28T08:55:25.576Z,13.50
2023-01-28T08:56:25.540Z,12.30
2023-01-28T08:57:25.488Z,12.00
2023-01-28T08:58:25.446Z,12.50
2023-01-28T08:59:25.398Z,12.00
2023-01-28T09:00:25.472Z,11.70
2023-01-28T09:01:25.338Z,11.70
2023-01-28T09:02:31.352Z,11.40
2023-01-28T09:03:25.346Z,11.70
2023-01-28T09:04:25.168Z,11.10
2023-01-28T09:05:25.133Z,11.30
2023-01-28T09:06:25.085Z,11.50
2023-01-28T09:07:25.061Z,11.10
2023-01-28T09:08:25.419Z,11.70
2023-01-28T09:09:24.941Z,11.30
2023-01-28T09:10:24.947Z,11.80
2023-01-28T09:11:24.854Z,12.00
2023-01-28T09:12:24.805Z,11.70
2023-01-28T09:13:24.774Z,11.50
2023-01-28T09:14:24.723Z,11.20
2023-01-28T09:15:24.674Z,12.00
2023-01-28T09:16:24.648Z,11.80
2023-01-28T09:17:24.584Z,12.10
2023-01-28T09:18:24.541Z,11.90
2023-01-28T09:19:24.505Z,12.00
2023-01-28T09:20:24.485Z,11.40
2023-01-28T09:21:24.397Z,11.50
2023-01-28T09:22:24.367Z,11.60
2023-01-28T09:23:24.304Z,11.90
2023-01-28T09:24:24.298Z,11.90
2023-01-28T09:25:24.227Z,11.70
2023-01-28T09:26:24.180Z,11.90
2023-01-28T09:27:24.123Z,11.40
2023-01-28T09:28:24.082Z,12.40
2023-01-28T09:29:24.041Z,12.70
2023-01-28T09:30:24.046Z,12.50
2023-01-28T09:31:24.028Z,11.70
2023-01-28T09:32:23.900Z,11.60
2023-01-28T09:33:23.850Z,11.40
2023-01-28T09:34:23.802Z,11.60
2023-01-28T09:35:23.760Z,11.40
2023-01-28T09:36:23.727Z,11.60
2023-01-28T09:37:23.668Z,12.50
2023-01-28T09:38:23.620Z,12.00
2023-01-28T09:39:23.578Z,11.60
2023-01-28T09:40:23.533Z,12.20
2023-01-28T09:41:23.494Z,25.30
2023-01-28T09:42:23.454Z,22.20
2023-01-28T09:43:23.396Z,47.70
2023-01-28T09:44:23.354Z,14.90
2023-01-28T09:45:23.315Z,12.30
2023-01-28T09:46:23.284Z,11.70
2023-01-28T09:47:23.222Z,12.10
2023-01-28T09:48:23.180Z,11.40
2023-01-28T09:49:23.154Z,11.50
2023-01-28T09:50:23.177Z,11.10
2023-01-28T09:51:23.035Z,11.50
2023-01-28T09:52:22.988Z,11.20
2023-01-28T09:53:22.967Z,11.10
2023-01-28T09:54:22.898Z,11.10
2023-01-28T09:55:22.858Z,10.50
2023-01-28T09:56:22.807Z,11.50
2023-01-28T09:57:22.770Z,11.20
2023-01-28T09:58:22.716Z,11.30
2023-01-28T09:59:22.699Z,11.30
2023-01-28T10:00:22.639Z,11.50
2023-01-28T10:01:22.591Z,11.60
2023-01-28T10:02:22.535Z,11.90
2023-01-28T10:03:22.581Z,11.40
2023-01-28T10:04:22.460Z,12.00
2023-01-28T10:05:22.425Z,12.50
2023-01-28T10:06:22.353Z,13.10
2023-01-28T10:07:22.316Z,13.40
2023-01-28T10:08:22.264Z,13.40
2023-01-28T10:09:22.223Z,13.60
2023-01-28T10:10:22.194Z,13.60
2023-01-28T10:11:22.141Z,13.90
2023-01-28T10:12:22.088Z,14.00
2023-01-28T10:13:22.190Z,13.90
2023-01-28T10:14:21.997Z,14.10
2023-01-28T10:15:21.958Z,14.70
2023-01-28T10:16:21.905Z,14.40
2023-01-28T10:17:21.919Z,15.10
2023-01-28T10:18:21.814Z,15.30
2023-01-28T10:19:21.773Z,15.70
2023-01-28T10:20:21.748Z,15.80
2023-01-28T10:21:21.713Z,15.90
2023-01-28T10:22:21.632Z,16.00
2023-01-28T10:23:21.593Z,16.10
2023-01-28T10:24:21.614Z,16.50
2023-01-28T10:25:21.501Z,16.30
2023-01-28T10:26:21.556Z,15.70
2023-01-28T10:27:21.417Z,17.00
2023-01-28T10:28:21.362Z,16.50
2023-01-28T10:29:21.339Z,17.60
2023-01-28T10:30:21.272Z,17.40
2023-01-28T10:31:21.263Z,24.40
2023-01-28T10:32:21.193Z,40.20
2023-01-28T10:33:21.154Z,20.80
2023-01-28T10:34:21.093Z,17.30
2023-01-28T10:35:21.051Z,17.70
2023-01-28T10:36:21.004Z,16.30
2023-01-28T10:37:20.959Z,16.10
2023-01-28T10:38:20.935Z,15.30
2023-01-28T10:39:20.873Z,15.20
2023-01-28T10:40:20.849Z,15.80
2023-01-28T10:41:20.782Z,15.50
2023-01-28T10:42:20.734Z,16.70
2023-01-28T10:43:20.692Z,17.00
2023-01-28T10:44:20.664Z,16.30
2023-01-28T10:45:20.608Z,16.70
2023-01-28T10:46:20.575Z,15.90
2023-01-28T10:47:20.522Z,15.40
2023-01-28T10:48:20.471Z,15.60
2023-01-28T10:49:20.423Z,15.80
2023-01-28T10:50:20.524Z,15.20
2023-01-28T10:51:20.337Z,16.00
2023-01-28T10:52:20.297Z,16.00
2023-01-28T10:53:27.369Z,15.60
2023-01-28T10:54:20.195Z,15.80
2023-01-28T10:55:20.151Z,14.80
2023-01-28T10:56:20.119Z,15.70
2023-01-28T10:57:20.063Z,15.30
2023-01-28T10:58:20.016Z,15.50
2023-01-28T10:59:19.971Z,15.30
2023-01-28T11:00:19.923Z,15.00
2023-01-28T11:01:19.957Z,15.60
2023-01-28T11:02:19.899Z,15.40
2023-01-28T11:03:19.796Z,15.90
2023-01-28T11:04:19.744Z,15.80
2023-01-28T11:05:19.701Z,16.20
2023-01-28T11:06:19.654Z,15.30
2023-01-28T11:07:19.616Z,15.70
2023-01-28T11:08:19.574Z,16.00
2023-01-28T11:09:19.526Z,16.40
2023-01-28T11:10:19.472Z,15.60
2023-01-28T11:11:19.436Z,15.60
2023-01-28T11:12:19.386Z,16.70
2023-01-28T11:13:19.359Z,16.40
2023-01-28T11:14:19.294Z,15.90
2023-01-28T11:15:19.254Z,15.60
2023-01-28T11:16:19.211Z,16.60
2023-01-28T11:17:19.252Z,16.30
2023-01-28T11:18:19.151Z,15.50
2023-01-28T11:19:19.324Z,16.50
2023-01-28T11:20:19.085Z,16.10
2023-01-28T11:21:19.035Z,16.40
2023-01-28T11:22:18.939Z,16.30
2023-01-28T11:23:18.906Z,16.90
2023-01-28T11:24:18.905Z,16.00
2023-01-28T11:25:18.814Z,15.40
2023-01-28T11:26:18.765Z,15.80
2023-01-28T11:27:18.720Z,16.20
2023-01-28T11:28:18.725Z,15.80
2023-01-28T11:29:18.640Z,16.00
2023-01-28T11:30:18.628Z,16.20
2023-01-28T11:31:18.578Z,15.40
2023-01-28T11:32:18.496Z,15.00
2023-01-28T11:33:18.458Z,15.40
2023-01-28T11:34:18.429Z,14.90
2023-01-28T11:35:18.360Z,15.10
2023-01-28T11:36:18.333Z,15.40
2023-01-28T11:37:18.280Z,16.00
2023-01-28T11:38:18.241Z,15.80
2023-01-28T11:39:18.184Z,15.80
2023-01-28T11:40:20.550Z,16.10
2023-01-28T11:41:18.090Z,15.40
2023-01-28T11:42:18.060Z,15.60
2023-01-28T11:43:18.001Z,16.00
2023-01-28T11:44:17.968Z,16.00
2023-01-28T11:45:17.924Z,16.10
2023-01-28T11:46:17.934Z,16.30
2023-01-28T11:47:17.828Z,15.40
2023-01-28T11:48:17.809Z,16.20
2023-01-28T11:49:17.737Z,15.90
2023-01-28T11:50:18.084Z,16.50
2023-01-28T11:51:17.646Z,16.30
2023-01-28T11:52:17.598Z,15.90
2023-01-28T11:53:17.552Z,15.70
2023-01-28T11:54:17.529Z,15.90
2023-01-28T11:55:17.465Z,17.10
2023-01-28T11:56:17.422Z,16.20
2023-01-28T11:57:17.373Z,16.20
2023-01-28T11:58:17.340Z,15.70
2023-01-28T11:59:17.280Z,15.90
2023-01-28T12:00:17.552Z,16.20
2023-01-28T12:01:17.196Z,16.20
2023-01-28T12:02:17.160Z,16.60
2023-01-28T12:03:17.102Z,16.20
2023-01-28T12:04:17.064Z,16.30
2023-01-28T12:05:17.010Z,16.50
2023-01-28T12:06:16.987Z,16.50
2023-01-28T12:07:16.923Z,16.20
2023-01-28T12:08:16.877Z,15.90
2023-01-28T12:09:16.835Z,15.70
2023-01-28T12:10:17.227Z,15.60
2023-01-28T12:11:16.739Z,16.20
2023-01-28T12:12:16.709Z,16.20
2023-01-28T12:13:16.653Z,15.90
2023-01-28T12:14:16.609Z,16.10
2023-01-28T12:15:16.562Z,16.70
2023-01-28T12:16:16.614Z,16.90
2023-01-28T12:17:16.496Z,18.00
2023-01-28T12:18:16.433Z,17.30
2023-01-28T12:19:16.398Z,18.00
2023-01-28T12:20:16.630Z,17.00
2023-01-28T12:21:16.296Z,17.70
2023-01-28T12:22:16.260Z,18.40
2023-01-28T12:23:16.215Z,18.40
2023-01-28T12:24:16.216Z,18.40
2023-01-28T12:25:16.123Z,18.40
2023-01-28T12:26:16.091Z,18.10
2023-01-28T12:27:16.024Z,19.60
2023-01-28T12:28:15.982Z,19.10
2023-01-28T12:29:15.949Z,18.50
2023-01-28T12:30:16.314Z,19.00
2023-01-28T12:31:15.893Z,18.60
2023-01-28T12:32:15.803Z,18.80
2023-01-28T12:33:17.550Z,18.90
2023-01-28T12:34:15.718Z,19.10
2023-01-28T12:35:15.685Z,19.80
2023-01-28T12:36:15.628Z,19.70
2023-01-28T12:37:15.581Z,19.90
2023-01-28T12:38:15.533Z,19.00
2023-01-28T12:39:15.485Z,19.00
2023-01-28T12:40:15.940Z,19.60
2023-01-28T12:41:15.407Z,19.00
2023-01-28T12:42:15.352Z,19.60
2023-01-28T12:43:15.307Z,19.20
2023-01-28T12:44:15.262Z,19.20
2023-01-28T12:45:15.219Z,19.90
2023-01-28T12:46:15.183Z,18.80
2023-01-28T12:47:15.126Z,18.90
2023-01-28T12:48:15.084Z,18.40
2023-01-28T12:49:15.040Z,18.80
2023-01-28T12:50:15.418Z,19.40
2023-01-28T12:51:14.952Z,19.10
2023-01-28T12:52:14.916Z,19.00
2023-01-28T12:53:14.864Z,18.40
2023-01-28T12:54:14.823Z,18.30
2023-01-28T12:55:14.783Z,18.40
2023-01-28T12:56:14.729Z,17.70
2023-01-28T12:57:14.693Z,18.70
2023-01-28T12:58:14.655Z,18.10